< < Back
Terminal Aerodrome Forecast


Current Version              Previous Versions:   1  2  3  4  5  6  7  8  9  

Terminal Aerodrome Forecast

825
FTUS42 KCHS 200200 AAB
TAFCHS
TAF AMD
KCHS 200243Z 2003/2024 02013G17KT P6SM OVC008
     FM200345 02015G23KT 6SM -SHRA VCTS SCT005CB OVC008
      TEMPO 2004/2006 4SM SHRA BR
     FM201500 02020G28KT P6SM VCSH SCT010 OVC015=

Latest METAR

687
SAUS80 KWBC 200300 RRA
MTRCHS
METAR KCHS 200256Z 01012KT 6SM BR OVC007 13/11 A3006 RMK AO2 RAB47E56
SLP177 P0000 60000 T01280106 53014


USA.gov is the U.S. government's official web portal to all federal, state and local government web resources and services.